Terminal Aerodrome Forecast
Issued by NWS

Home | Current Version | Previous Version | Text Only | Print | Product List | Glossary On
Versions: 1 2 3 4 5 6 7 8 9 10 11 12 13 14
000
FTUS41 KCLE 131900 AAA
TAFFDY
TAF AMD
KFDY 131944Z 1320/1418 26010KT P6SM SCT040 BKN200
     FM140100 28004KT P6SM FEW120 SCT250
     FM141000 17002KT 5SM BR SCT040
     FM141200 25006KT P6SM SCT040 BKN150=

USA.gov is the U.S. government's official web portal to all federal, state and local government web resources and services.